Carnival Splendor — 3EUS — position and weather

sailwx.info

Track history (hours):
 
Tides and Currents Weather Stations Pressure Air Temp Water Temp Dewpoint Dewpoint Depression Visibility Wind Speed Wind Dir Waves Ship Positions

Carnival Splendor

Last reported at 2016-Jun-26 20:31 UTC. Time now 2016-Jun-26 21:05 UTC.
Position N 25°47' W 080°10'.

Length 289 m; draft 8.3 m.

Type: Ship. MMSI: 372808000.

Date/timePositionNaut miles runAvg speedWind from/ knotsBaromVisibWave heightAir tempDewpointWater temp
2016-Jun-26 20:31N 25°47' W 080°10'0 0.0
2016-Jun-26 19:22N 25°47' W 080°10'0 0.0
2016-Jun-26 18:33N 25°47' W 080°10'0 0.0
2016-Jun-26 17:24N 25°47' W 080°10'0 0.0
2016-Jun-26 16:29N 25°47' W 080°10'0 0.0
2016-Jun-26 15:11N 25°47' W 080°10'0 0.0
2016-Jun-26 14:31N 25°47' W 080°10'0 0.0
2016-Jun-26 13:28N 25°47' W 080°10'0 0.0
2016-Jun-26 12:22N 25°47' W 080°10'0 0.0
2016-Jun-26 11:33N 25°47' W 080°10'1 0.7
2016-Jun-26 10:33N 25°47' W 080°11'9 8.9
2016-Jun-26 09:33N 25°47' W 080°01'1111.5
2016-Jun-26 08:33N 25°37' W 079°54'  
2016-Jun-19 01:33N 26°16' W 079°10'1717.2
2016-Jun-19 00:33N 26°07' W 079°26'1918.7
2016-Jun-18 23:33N 25°54' W 079°41'1817.8
2016-Jun-18 22:33N 25°49' W 079°60'10 9.9
2016-Jun-18 21:33N 25°47' W 080°11'0 0.2
2016-Jun-18 19:31N 25°47' W 080°10'0 0.0
2016-Jun-18 18:25N 25°47' W 080°10'0 0.0
2016-Jun-18 17:33N 25°47' W 080°10'0 0.0
2016-Jun-18 16:27N 25°47' W 080°10'0 0.0
2016-Jun-18 15:33N 25°47' W 080°10'0 0.0
2016-Jun-18 14:29N 25°47' W 080°10'0 0.0
2016-Jun-18 13:32N 25°47' W 080°10'0 0.0
2016-Jun-18 12:32N 25°47' W 080°10'0 0.0
2016-Jun-18 11:29N 25°47' W 080°10'0 0.0
2016-Jun-18 10:33N 25°47' W 080°10'8 7.7
2016-Jun-18 09:33N 25°46' W 080°02'9 8.6
2016-Jun-18 08:33N 25°47' W 079°52'1111.5
2016-Jun-18 07:34N 25°36' W 079°50'48815.7
2016-Jun-17 00:28N 20°40' W 086°52'1314.4
2016-Jun-16 23:33N 20°29' W 086°59'0 0.1
2016-Jun-16 22:33N 20°29' W 086°59'0 0.0
2016-Jun-16 21:33N 20°29' W 086°59'0 0.0
2016-Jun-16 20:32N 20°29' W 086°59'  
Track history (hours):
 
Tides and Currents Weather Stations Pressure Air Temp Water Temp Dewpoint Dewpoint Depression Visibility Wind Speed Wind Dir Waves Ship Positions

Carnival Splendor

Last reported at 2016-Jun-26 20:31 UTC. Time now 2016-Jun-26 21:05 UTC.
Position N 25°47' W 080°10'.

Length 289 m; draft 8.3 m.

Type: Ship. MMSI: 372808000.

Date/timePositionNaut miles runAvg speedWind from/ knotsBaromVisibWave heightAir tempDewpointWater temp
2016-Jun-26 20:31N 25°47' W 080°10'0 0.0
2016-Jun-26 19:22N 25°47' W 080°10'0 0.0
2016-Jun-26 18:33N 25°47' W 080°10'0 0.0
2016-Jun-26 17:24N 25°47' W 080°10'0 0.0
2016-Jun-26 16:29N 25°47' W 080°10'0 0.0
2016-Jun-26 15:11N 25°47' W 080°10'0 0.0
2016-Jun-26 14:31N 25°47' W 080°10'0 0.0
2016-Jun-26 13:28N 25°47' W 080°10'0 0.0
2016-Jun-26 12:22N 25°47' W 080°10'0 0.0
2016-Jun-26 11:33N 25°47' W 080°10'1 0.7
2016-Jun-26 10:33N 25°47' W 080°11'9 8.9
2016-Jun-26 09:33N 25°47' W 080°01'1111.5
2016-Jun-26 08:33N 25°37' W 079°54'  
2016-Jun-19 01:33N 26°16' W 079°10'1717.2
2016-Jun-19 00:33N 26°07' W 079°26'1918.7
2016-Jun-18 23:33N 25°54' W 079°41'1817.8
2016-Jun-18 22:33N 25°49' W 079°60'10 9.9
2016-Jun-18 21:33N 25°47' W 080°11'0 0.2
2016-Jun-18 19:31N 25°47' W 080°10'0 0.0
2016-Jun-18 18:25N 25°47' W 080°10'0 0.0
2016-Jun-18 17:33N 25°47' W 080°10'0 0.0
2016-Jun-18 16:27N 25°47' W 080°10'0 0.0
2016-Jun-18 15:33N 25°47' W 080°10'0 0.0
2016-Jun-18 14:29N 25°47' W 080°10'0 0.0
2016-Jun-18 13:32N 25°47' W 080°10'0 0.0
2016-Jun-18 12:32N 25°47' W 080°10'0 0.0
2016-Jun-18 11:29N 25°47' W 080°10'0 0.0
2016-Jun-18 10:33N 25°47' W 080°10'8 7.7
2016-Jun-18 09:33N 25°46' W 080°02'9 8.6
2016-Jun-18 08:33N 25°47' W 079°52'1111.5
2016-Jun-18 07:34N 25°36' W 079°50'48815.7
2016-Jun-17 00:28N 20°40' W 086°52'1314.4
2016-Jun-16 23:33N 20°29' W 086°59'0 0.1
2016-Jun-16 22:33N 20°29' W 086°59'0 0.0
2016-Jun-16 21:33N 20°29' W 086°59'0 0.0
2016-Jun-16 20:32N 20°29' W 086°59'  

Dump ship's entire track history